createdAt,value
2018-07-19T00:01:46.041Z,99872.47
2018-07-19T00:04:13.707Z,99875.01
2018-07-19T00:06:41.362Z,99870.44
2018-07-19T00:09:09.820Z,99892.83
2018-07-19T00:11:37.573Z,99873.76
2018-07-19T00:14:05.276Z,99885.23
2018-07-19T00:16:32.933Z,99877.91
2018-07-19T00:19:00.659Z,99880.81
2018-07-19T00:21:28.231Z,99873.18
2018-07-19T00:23:55.893Z,99874.30
2018-07-19T00:26:23.584Z,99874.21
2018-07-19T00:28:51.267Z,99868.70
2018-07-19T00:31:19.019Z,99871.08
2018-07-19T00:33:46.678Z,99878.61
2018-07-19T00:36:14.339Z,99871.01
2018-07-19T00:38:41.994Z,99875.09
2018-07-19T00:41:09.652Z,99874.02
2018-07-19T00:43:37.608Z,99880.91
2018-07-19T00:46:05.228Z,99883.03
2018-07-19T00:48:32.809Z,99886.07
2018-07-19T00:51:00.469Z,99887.41
2018-07-19T00:53:28.122Z,99889.19
2018-07-19T00:55:55.813Z,99894.63
2018-07-19T00:58:23.494Z,99888.73
2018-07-19T01:00:51.117Z,99888.46
2018-07-19T01:03:18.738Z,99890.50
2018-07-19T01:05:46.426Z,99888.12
2018-07-19T01:08:14.046Z,99891.39
2018-07-19T01:10:41.750Z,99896.06
2018-07-19T01:13:09.427Z,99888.05
2018-07-19T01:15:37.094Z,99893.19
2018-07-19T01:18:05.213Z,99888.28
2018-07-19T01:20:32.853Z,99892.50
2018-07-19T01:23:00.535Z,99882.39
2018-07-19T01:25:28.256Z,99894.46
2018-07-19T01:27:55.892Z,99886.36
2018-07-19T01:30:23.533Z,99885.06
2018-07-19T01:32:51.263Z,99889.34
2018-07-19T01:35:18.957Z,99885.47
2018-07-19T01:37:46.655Z,99890.05
2018-07-19T01:40:14.321Z,99890.38
2018-07-19T01:42:43.238Z,99890.97
2018-07-19T01:45:11.570Z,99890.05
2018-07-19T01:47:39.472Z,99887.39
2018-07-19T01:50:08.264Z,99886.10
2018-07-19T01:52:35.985Z,99890.36
2018-07-19T01:55:04.078Z,99889.45
2018-07-19T01:57:31.773Z,99892.66
2018-07-19T01:59:59.503Z,99891.22
2018-07-19T02:02:27.275Z,99882.58
2018-07-19T02:04:55.012Z,99884.61
2018-07-19T02:07:22.704Z,99895.55
2018-07-19T02:09:50.382Z,99888.20
2018-07-19T02:12:18.073Z,99886.98
2018-07-19T02:14:45.736Z,99884.40
2018-07-19T02:17:13.376Z,99889.06
2018-07-19T02:19:41.069Z,99885.70
2018-07-19T02:22:08.728Z,99888.58
2018-07-19T02:24:36.390Z,99887.90
2018-07-19T02:27:04.100Z,99891.39
2018-07-19T02:29:31.672Z,99897.07
2018-07-19T02:31:59.274Z,99897.75
2018-07-19T02:34:26.963Z,99894.06
2018-07-19T02:37:00.536Z,99891.39
2018-07-19T02:39:28.206Z,99897.34
2018-07-19T02:41:55.939Z,99897.05
2018-07-19T02:44:23.542Z,99891.29
2018-07-19T02:46:51.188Z,99893.27
2018-07-19T02:49:18.913Z,99892.78
2018-07-19T02:51:46.579Z,99893.79
2018-07-19T02:54:14.218Z,99896.11
2018-07-19T02:56:41.874Z,99891.64
2018-07-19T02:59:09.598Z,99893.13
2018-07-19T03:01:37.300Z,99896.13
2018-07-19T03:04:04.952Z,99889.63
2018-07-19T03:06:32.636Z,99891.96
2018-07-19T03:09:00.278Z,99893.45
2018-07-19T03:11:27.929Z,99900.91
2018-07-19T03:13:55.547Z,99899.77
2018-07-19T03:16:23.287Z,99899.10
2018-07-19T03:18:50.935Z,99900.59
2018-07-19T03:21:18.588Z,99903.73
2018-07-19T03:23:46.261Z,99905.42
2018-07-19T03:26:14.060Z,99908.57
2018-07-19T03:28:41.755Z,99908.53
2018-07-19T03:31:09.703Z,99912.05
2018-07-19T03:33:37.286Z,99911.56
2018-07-19T03:36:05.059Z,99916.02
2018-07-19T03:38:32.742Z,99916.52
2018-07-19T03:41:00.403Z,99915.85
2018-07-19T03:43:28.058Z,99913.04
2018-07-19T03:45:55.710Z,99907.88
2018-07-19T03:48:23.446Z,99911.86
2018-07-19T03:50:51.161Z,99918.03
2018-07-19T03:53:18.858Z,99910.55
2018-07-19T03:55:46.557Z,99916.53
2018-07-19T03:58:14.352Z,99920.00
2018-07-19T04:00:42.031Z,99922.99
2018-07-19T04:03:09.651Z,99917.84
2018-07-19T04:05:37.328Z,99925.94
2018-07-19T04:08:05.200Z,99931.12
2018-07-19T04:10:32.882Z,99921.48
2018-07-19T04:13:01.705Z,99933.77
2018-07-19T04:15:29.323Z,99925.64
2018-07-19T04:17:57.788Z,99930.65
2018-07-19T04:20:26.517Z,99931.95
2018-07-19T04:22:54.921Z,99937.27
2018-07-19T04:25:23.071Z,99937.27
2018-07-19T04:27:51.001Z,99936.56
2018-07-19T04:30:18.673Z,99942.22
2018-07-19T04:32:46.371Z,99939.43
2018-07-19T04:35:13.959Z,99934.13
2018-07-19T04:37:41.620Z,99938.09
2018-07-19T04:40:09.337Z,99940.87
2018-07-19T04:42:37.201Z,99940.70
2018-07-19T04:45:05.392Z,99948.16
2018-07-19T04:47:33.052Z,99949.80
2018-07-19T04:50:00.642Z,99954.09
2018-07-19T04:52:28.302Z,99956.59
2018-07-19T04:54:56.297Z,99960.73
2018-07-19T04:57:24.032Z,99961.67
2018-07-19T04:59:51.742Z,99967.55
2018-07-19T05:02:19.750Z,99961.52
2018-07-19T05:04:47.358Z,99959.30
2018-07-19T05:07:15.000Z,99954.58
2018-07-19T05:09:42.917Z,99956.44
2018-07-19T05:12:10.594Z,99965.09
2018-07-19T05:14:38.288Z,99960.39
2018-07-19T05:17:05.956Z,99956.80
2018-07-19T05:19:33.567Z,99961.42
2018-07-19T05:22:01.226Z,99959.20
2018-07-19T05:24:28.909Z,99963.53
2018-07-19T05:26:56.493Z,99964.25
2018-07-19T05:29:24.187Z,99972.13
2018-07-19T05:31:51.838Z,99972.70
2018-07-19T05:34:26.188Z,99972.42
2018-07-19T05:36:53.867Z,99970.33
2018-07-19T05:39:21.480Z,99963.75
2018-07-19T05:41:49.165Z,99963.77
2018-07-19T05:44:16.790Z,99965.42
2018-07-19T05:46:44.520Z,99962.52
2018-07-19T05:49:12.201Z,99963.37
2018-07-19T05:51:39.824Z,99965.38
2018-07-19T05:54:07.494Z,99971.49
2018-07-19T05:56:35.149Z,99968.36
2018-07-19T05:59:02.811Z,99972.58
2018-07-19T06:01:30.450Z,99974.31
2018-07-19T06:03:58.118Z,99962.83
2018-07-19T06:06:25.758Z,99964.36
2018-07-19T06:08:53.413Z,99963.28
2018-07-19T06:11:21.101Z,99950.98
2018-07-19T06:13:48.759Z,99960.75
2018-07-19T06:16:16.473Z,99960.70
2018-07-19T06:18:44.229Z,99960.28
2018-07-19T06:21:11.909Z,99960.94
2018-07-19T06:23:39.599Z,99965.45
2018-07-19T06:26:07.244Z,99954.94
2018-07-19T06:28:35.045Z,99954.33
2018-07-19T06:31:02.877Z,99956.77
2018-07-19T06:33:30.637Z,99955.11
2018-07-19T06:35:58.728Z,99953.71
2018-07-19T06:38:26.429Z,99950.82
2018-07-19T06:40:54.148Z,99948.03
2018-07-19T06:43:21.942Z,99951.03
2018-07-19T06:45:49.610Z,99951.45
2018-07-19T06:48:17.290Z,99949.27
2018-07-19T06:50:44.992Z,99950.22
2018-07-19T06:53:12.674Z,99943.09
2018-07-19T06:55:40.368Z,99944.66
2018-07-19T06:58:08.022Z,99949.27
2018-07-19T07:00:35.693Z,99951.55
2018-07-19T07:03:03.354Z,99959.61
2018-07-19T07:05:31.078Z,99949.77
2018-07-19T07:07:58.753Z,99953.61
2018-07-19T07:10:26.377Z,99949.70
2018-07-19T07:12:54.143Z,99951.76
2018-07-19T07:15:21.767Z,99954.81
2018-07-19T07:17:49.435Z,99952.17
2018-07-19T07:20:17.143Z,99958.62
2018-07-19T07:22:44.833Z,99951.55
2018-07-19T07:25:12.568Z,99957.09
2018-07-19T07:27:40.339Z,99953.41
2018-07-19T07:30:08.050Z,99947.80
2018-07-19T07:32:35.792Z,99954.34
2018-07-19T07:35:04.407Z,99948.89
2018-07-19T07:37:32.094Z,99959.48
2018-07-19T07:39:59.778Z,99956.10
2018-07-19T07:42:27.544Z,99959.12
2018-07-19T07:44:55.366Z,99976.23
2018-07-19T07:47:23.383Z,99951.55
2018-07-19T07:49:51.055Z,99951.36
2018-07-19T07:52:18.761Z,99956.41
2018-07-19T07:54:46.478Z,99955.08
2018-07-19T07:57:14.194Z,99965.30
2018-07-19T07:59:41.881Z,99960.20
2018-07-19T08:02:10.014Z,99950.65
2018-07-19T08:04:38.550Z,99945.41
2018-07-19T08:07:06.225Z,99963.13
2018-07-19T08:09:33.984Z,99951.59
2018-07-19T08:12:02.000Z,99951.82
2018-07-19T08:14:29.742Z,99971.86
2018-07-19T08:16:57.606Z,99959.83
2018-07-19T08:19:25.266Z,99955.09
2018-07-19T08:21:52.956Z,99948.67
2018-07-19T08:24:20.772Z,99945.59
2018-07-19T08:26:48.550Z,99947.41
2018-07-19T08:29:16.295Z,99939.84
2018-07-19T08:31:44.197Z,99944.12
2018-07-19T08:34:11.975Z,99951.58
2018-07-19T08:36:39.920Z,99951.36
2018-07-19T08:39:10.754Z,99941.61
2018-07-19T08:41:38.502Z,99951.30
2018-07-19T08:46:40.791Z,99951.38
2018-07-19T08:49:08.508Z,99942.97
2018-07-19T08:51:36.286Z,99957.90
2018-07-19T08:54:03.956Z,99960.63
2018-07-19T08:56:31.764Z,99964.20
2018-07-19T08:58:59.422Z,99949.67
2018-07-19T09:01:27.073Z,99958.14
2018-07-19T09:03:54.844Z,99961.22
2018-07-19T09:06:22.453Z,99955.78
2018-07-19T09:08:50.114Z,99958.52
2018-07-19T09:11:18.080Z,99962.84
2018-07-19T09:13:46.348Z,99963.36
2018-07-19T09:16:14.012Z,99960.59
2018-07-19T09:18:41.707Z,99956.13
2018-07-19T09:21:09.486Z,99954.52
2018-07-19T09:23:37.271Z,99973.21
2018-07-19T09:26:04.954Z,99961.97
2018-07-19T09:28:32.622Z,99964.06
2018-07-19T09:31:00.381Z,99967.16
2018-07-19T09:33:28.087Z,99970.64
2018-07-19T09:35:55.727Z,99978.81
2018-07-19T09:38:23.488Z,99967.45
2018-07-19T09:40:51.240Z,99959.53
2018-07-19T09:43:18.988Z,99964.59
2018-07-19T09:45:46.768Z,99956.17
2018-07-19T09:48:14.450Z,99955.45
2018-07-19T09:50:42.181Z,99951.80
2018-07-19T09:53:09.870Z,99961.65
2018-07-19T09:55:37.658Z,99956.84
2018-07-19T09:58:05.673Z,99962.61
2018-07-19T10:01:37.994Z,99957.86
2018-07-19T10:04:06.159Z,99953.11
2018-07-19T10:06:33.803Z,99942.52
2018-07-19T10:09:01.473Z,99952.12
2018-07-19T10:11:29.188Z,99955.56
2018-07-19T10:13:56.868Z,99949.91
2018-07-19T10:16:24.515Z,99949.29
2018-07-19T10:18:52.199Z,99950.13
2018-07-19T10:21:19.941Z,99950.59
2018-07-19T10:23:47.600Z,99963.91
2018-07-19T10:26:15.221Z,99954.87
2018-07-19T10:28:43.099Z,99955.21
2018-07-19T10:31:10.838Z,99949.98
2018-07-19T10:33:38.514Z,99956.08
2018-07-19T10:36:06.271Z,99947.63
2018-07-19T10:38:33.909Z,99950.92
2018-07-19T10:41:01.662Z,99957.00
2018-07-19T10:43:29.375Z,99952.56
2018-07-19T10:45:57.248Z,99944.59
2018-07-19T10:48:24.890Z,99941.22
2018-07-19T10:50:52.558Z,99943.39
2018-07-19T10:53:20.150Z,99940.08
2018-07-19T10:55:47.914Z,99941.12
2018-07-19T10:58:15.638Z,99954.73
2018-07-19T11:00:43.462Z,99950.93
2018-07-19T11:03:11.122Z,99934.75
2018-07-19T11:05:38.871Z,99931.06
2018-07-19T11:08:06.539Z,99935.59
2018-07-19T11:10:34.291Z,99928.12
2018-07-19T11:13:02.065Z,99933.84
2018-07-19T11:15:29.846Z,99932.39
2018-07-19T11:17:57.465Z,99923.66
2018-07-19T11:20:25.248Z,99922.02
2018-07-19T11:22:52.962Z,99929.69
2018-07-19T11:25:21.163Z,99918.73
2018-07-19T11:27:48.839Z,99920.85
2018-07-19T11:30:16.623Z,99935.00
2018-07-19T11:32:44.395Z,99933.75
2018-07-19T11:35:12.099Z,99912.23
2018-07-19T11:37:39.802Z,99912.48
2018-07-19T11:40:07.579Z,99922.81
2018-07-19T11:42:35.303Z,99935.62
2018-07-19T11:45:02.994Z,99919.13
2018-07-19T11:47:30.756Z,99928.35
2018-07-19T11:49:58.546Z,99919.28
2018-07-19T11:52:26.295Z,99918.31
2018-07-19T11:54:54.012Z,99927.50
2018-07-19T11:57:21.913Z,99927.13
2018-07-19T11:59:49.620Z,99922.81
2018-07-19T12:02:17.268Z,99920.06
2018-07-19T12:04:45.000Z,99917.49
2018-07-19T12:07:12.707Z,99901.97
2018-07-19T12:09:40.447Z,99928.68
2018-07-19T12:12:08.262Z,99916.45
2018-07-19T12:14:35.921Z,99915.13
2018-07-19T12:17:03.667Z,99906.95
2018-07-19T12:19:31.393Z,99902.17
2018-07-19T12:21:59.311Z,99912.25
2018-07-19T12:24:27.019Z,99909.45
2018-07-19T12:26:54.740Z,99916.28
2018-07-19T12:29:22.431Z,99905.59
2018-07-19T12:31:50.149Z,99911.80
2018-07-19T12:34:17.909Z,99911.78
2018-07-19T12:36:45.675Z,99914.48
2018-07-19T12:39:13.408Z,99904.25
2018-07-19T12:41:41.590Z,99897.30
2018-07-19T12:44:09.516Z,99903.78
2018-07-19T12:46:37.597Z,99891.25
2018-07-19T12:49:05.790Z,99897.30
2018-07-19T12:51:33.647Z,99890.17
2018-07-19T12:54:01.436Z,99901.70
2018-07-19T12:56:29.171Z,99900.09
2018-07-19T12:58:57.240Z,99832.74
2018-07-19T13:01:24.840Z,99892.51
2018-07-19T13:03:52.490Z,99893.56
2018-07-19T13:06:20.153Z,99886.65
2018-07-19T13:08:47.806Z,99892.31
2018-07-19T13:11:15.487Z,99888.61
2018-07-19T13:13:43.363Z,99887.92
2018-07-19T13:16:11.746Z,99899.95
2018-07-19T13:18:39.414Z,99891.76
2018-07-19T13:21:07.214Z,99896.09
2018-07-19T13:23:35.022Z,99885.66
2018-07-19T13:26:02.857Z,99884.32
2018-07-19T13:28:30.797Z,99906.20
2018-07-19T13:30:58.479Z,99870.43
2018-07-19T13:33:26.193Z,99881.14
2018-07-19T13:35:53.909Z,99887.83
2018-07-19T13:38:21.531Z,99884.44
2018-07-19T13:40:49.821Z,99889.27
2018-07-19T13:43:17.494Z,99891.31
2018-07-19T13:45:45.261Z,99881.47
2018-07-19T13:48:12.867Z,99880.91
2018-07-19T13:50:40.716Z,99880.13
2018-07-19T13:53:41.093Z,99884.95
2018-07-19T13:56:09.190Z,99874.38
2018-07-19T13:58:37.621Z,99881.94
2018-07-19T14:01:05.382Z,99881.00
2018-07-19T14:03:33.270Z,99885.31
2018-07-19T14:06:01.404Z,99894.65
2018-07-19T14:08:29.034Z,99899.50
2018-07-19T14:10:56.810Z,99897.21
2018-07-19T14:13:24.489Z,99893.16
2018-07-19T14:15:53.105Z,99895.34
2018-07-19T14:18:20.975Z,99903.58
2018-07-19T14:20:49.129Z,99906.53
2018-07-19T14:23:16.824Z,99900.50
2018-07-19T14:25:44.490Z,99892.33
2018-07-19T14:28:12.415Z,99891.95
2018-07-19T14:30:40.403Z,99900.06
2018-07-19T14:33:08.544Z,99895.23
2018-07-19T14:35:36.289Z,99905.53
2018-07-19T14:38:03.891Z,99910.46
2018-07-19T14:40:31.516Z,99898.52
2018-07-19T14:42:59.256Z,99896.28
2018-07-19T14:45:26.901Z,99894.80
2018-07-19T14:47:54.635Z,99904.52
2018-07-19T14:50:22.497Z,99890.31
2018-07-19T14:52:50.266Z,99907.91
2018-07-19T14:55:17.984Z,99898.06
2018-07-19T14:57:45.691Z,99900.07
2018-07-19T15:00:13.439Z,99897.02
2018-07-19T15:02:41.281Z,99902.03
2018-07-19T15:05:09.010Z,99912.87
2018-07-19T15:07:36.767Z,99909.37
2018-07-19T15:10:04.958Z,99903.90
2018-07-19T15:12:32.616Z,99901.69
2018-07-19T15:15:00.286Z,99901.25
2018-07-19T15:17:27.916Z,99915.33
2018-07-19T15:19:55.667Z,99908.86
2018-07-19T15:22:23.313Z,99901.84
2018-07-19T15:24:51.039Z,99903.65
2018-07-19T15:27:18.846Z,99909.80
2018-07-19T15:29:46.549Z,99894.43
2018-07-19T15:32:14.235Z,99892.65
2018-07-19T15:34:41.893Z,99879.45
2018-07-19T15:37:09.631Z,99890.59
2018-07-19T15:39:37.228Z,99896.86
2018-07-19T15:42:04.902Z,99892.66
2018-07-19T15:44:32.544Z,99897.27
2018-07-19T15:47:00.267Z,99889.04
2018-07-19T15:49:27.986Z,99881.44
2018-07-19T15:51:55.734Z,99877.88
2018-07-19T15:54:23.478Z,99881.63
2018-07-19T15:56:51.138Z,99877.50
2018-07-19T15:59:18.944Z,99876.78
2018-07-19T16:01:46.647Z,99882.97
2018-07-19T16:04:14.305Z,99876.11
2018-07-19T16:06:42.101Z,99867.70
2018-07-19T16:09:11.290Z,99873.90
2018-07-19T16:11:39.056Z,99875.11
2018-07-19T16:14:06.908Z,99879.89
2018-07-19T16:16:35.120Z,99890.23
2018-07-19T16:19:02.775Z,99887.34
2018-07-19T16:21:30.569Z,99884.02
2018-07-19T16:23:58.249Z,99885.67
2018-07-19T16:26:25.950Z,99881.25
2018-07-19T16:28:53.548Z,99880.44
2018-07-19T16:31:21.155Z,99884.77
2018-07-19T16:33:48.822Z,99884.74
2018-07-19T16:36:16.514Z,99879.37
2018-07-19T16:38:44.170Z,99887.33
2018-07-19T16:41:11.828Z,99882.06
2018-07-19T16:43:39.441Z,99878.35
2018-07-19T16:46:07.267Z,99881.89
2018-07-19T16:48:34.949Z,99883.56
2018-07-19T16:51:02.575Z,99881.24
2018-07-19T16:53:30.295Z,99877.55
2018-07-19T16:55:57.983Z,99881.86
2018-07-19T16:58:25.708Z,99882.13
2018-07-19T17:00:53.497Z,99887.42
2018-07-19T17:03:21.194Z,99880.73
2018-07-19T17:05:48.875Z,99890.88
2018-07-19T17:08:16.519Z,99885.18
2018-07-19T17:10:44.156Z,99878.37
2018-07-19T17:13:11.865Z,99880.73
2018-07-19T17:15:39.539Z,99877.74
2018-07-19T17:18:07.262Z,99873.20
2018-07-19T17:20:34.947Z,99878.14
2018-07-19T17:23:02.748Z,99875.56
2018-07-19T17:25:30.506Z,99876.25
2018-07-19T17:27:58.178Z,99873.74
2018-07-19T17:30:25.919Z,99868.75
2018-07-19T17:32:53.523Z,99873.55
2018-07-19T17:35:21.395Z,99878.95
2018-07-19T17:37:49.055Z,99872.73
2018-07-19T17:40:16.794Z,99876.06
2018-07-19T17:42:44.495Z,99877.52
2018-07-19T17:45:12.153Z,99879.31
2018-07-19T17:47:39.893Z,99880.96
2018-07-19T17:50:08.143Z,99876.09
2018-07-19T17:52:35.893Z,99874.72
2018-07-19T17:55:03.571Z,99870.94
2018-07-19T17:57:31.334Z,99874.22
2018-07-19T17:59:59.075Z,99872.30
2018-07-19T18:02:26.843Z,99880.93
2018-07-19T18:04:54.532Z,99875.91
2018-07-19T18:07:22.228Z,99880.14
2018-07-19T18:09:49.828Z,99879.34
2018-07-19T18:12:17.549Z,99876.05
2018-07-19T18:14:45.170Z,99878.19
2018-07-19T18:17:12.839Z,99880.39
2018-07-19T18:19:40.518Z,99876.65
2018-07-19T18:22:08.258Z,99878.15
2018-07-19T18:24:35.989Z,99873.07
2018-07-19T18:27:03.642Z,99874.62
2018-07-19T18:29:31.276Z,99873.64
2018-07-19T18:31:58.908Z,99881.08
2018-07-19T18:34:26.539Z,99882.31
2018-07-19T18:36:54.129Z,99881.18
2018-07-19T18:39:21.757Z,99878.15
2018-07-19T18:41:49.517Z,99886.52
2018-07-19T18:44:17.229Z,99877.00
2018-07-19T18:46:44.889Z,99884.23
2018-07-19T18:49:12.735Z,99886.47
2018-07-19T18:51:40.613Z,99882.17
2018-07-19T18:54:08.318Z,99886.73
2018-07-19T18:56:35.965Z,99887.50
2018-07-19T18:59:03.646Z,99890.95
2018-07-19T19:01:31.438Z,99884.44
2018-07-19T19:03:59.006Z,99888.77
2018-07-19T19:06:26.729Z,99889.87
2018-07-19T19:08:54.337Z,99885.22
2018-07-19T19:11:22.059Z,99894.20
2018-07-19T19:13:49.650Z,99889.22
2018-07-19T19:16:17.401Z,99890.48
2018-07-19T19:18:45.528Z,99892.66
2018-07-19T19:21:13.812Z,99894.22
2018-07-19T19:23:41.606Z,99893.52
2018-07-19T19:26:09.270Z,99900.73
2018-07-19T19:28:36.972Z,99897.73
2018-07-19T19:31:04.784Z,99899.89
2018-07-19T19:33:32.663Z,99899.77
2018-07-19T19:36:00.473Z,99901.85
2018-07-19T19:38:28.143Z,99896.64
2018-07-19T19:40:56.310Z,99898.14
2018-07-19T19:43:24.384Z,99893.19
2018-07-19T19:45:52.017Z,99895.14
2018-07-19T19:48:19.755Z,99902.33
2018-07-19T19:50:47.405Z,99901.89
2018-07-19T19:53:15.039Z,99895.56
2018-07-19T19:55:42.697Z,99894.61
2018-07-19T19:58:10.359Z,99898.62
2018-07-19T20:00:38.157Z,99895.84
2018-07-19T20:03:05.839Z,99898.68
2018-07-19T20:05:33.734Z,99891.64
2018-07-19T20:08:01.457Z,99893.95
2018-07-19T20:10:29.186Z,99891.09
2018-07-19T20:12:56.917Z,99891.65
2018-07-19T20:15:24.686Z,99889.27
2018-07-19T20:17:52.403Z,99895.56
2018-07-19T20:20:20.173Z,99886.09
2018-07-19T20:22:47.958Z,99890.17
2018-07-19T20:25:15.640Z,99891.09
2018-07-19T20:27:43.486Z,99884.86
2018-07-19T20:30:11.210Z,99889.02
2018-07-19T20:32:38.928Z,99894.00
2018-07-19T20:35:06.785Z,99896.02
2018-07-19T20:37:34.634Z,99895.55
2018-07-19T20:40:02.362Z,99892.91
2018-07-19T20:42:30.006Z,99896.23
2018-07-19T20:44:57.628Z,99896.00
2018-07-19T20:47:25.305Z,99897.39
2018-07-19T20:49:53.024Z,99899.41
2018-07-19T20:52:20.730Z,99899.84
2018-07-19T20:54:48.539Z,99889.45
2018-07-19T20:57:16.253Z,99894.63
2018-07-19T20:59:43.933Z,99896.13
2018-07-19T21:02:11.861Z,99893.78
2018-07-19T21:04:39.553Z,99890.44
2018-07-19T21:07:07.292Z,99891.25
2018-07-19T21:09:34.934Z,99890.71
2018-07-19T21:12:02.689Z,99891.86
2018-07-19T21:14:30.395Z,99882.81
2018-07-19T21:16:58.141Z,99894.92
2018-07-19T21:19:25.742Z,99895.55
2018-07-19T21:21:53.473Z,99894.77
2018-07-19T21:24:21.250Z,99899.48
2018-07-19T21:26:48.911Z,99892.17
2018-07-19T21:29:16.520Z,99891.95
2018-07-19T21:31:44.105Z,99889.12
2018-07-19T21:34:11.776Z,99892.67
2018-07-19T21:36:39.441Z,99890.71
2018-07-19T21:39:09.105Z,99897.33
2018-07-19T21:41:36.794Z,99895.82
2018-07-19T21:44:04.456Z,99891.30
2018-07-19T21:46:32.108Z,99893.73
2018-07-19T21:49:00.212Z,99892.16
2018-07-19T21:51:27.918Z,99892.92
2018-07-19T21:53:55.590Z,99894.09
2018-07-19T21:56:23.294Z,99888.48
2018-07-19T21:58:51.062Z,99893.78
2018-07-19T22:01:18.932Z,99897.94
2018-07-19T22:03:47.592Z,99896.24
2018-07-19T22:06:15.285Z,99895.20
2018-07-19T22:08:43.255Z,99892.95
2018-07-19T22:11:11.235Z,99896.53
2018-07-19T22:13:38.890Z,99897.12
2018-07-19T22:16:06.555Z,99896.41
2018-07-19T22:18:34.248Z,99893.21
2018-07-19T22:21:01.911Z,99900.27
2018-07-19T22:26:03.985Z,99904.52
2018-07-19T22:28:31.598Z,99901.50
2018-07-19T22:30:59.316Z,99904.33
2018-07-19T22:33:26.963Z,99905.69
2018-07-19T22:35:54.962Z,99915.13
2018-07-19T22:40:57.134Z,99911.11
2018-07-19T22:43:24.760Z,99910.31
2018-07-19T22:45:52.368Z,99916.44
2018-07-19T22:48:20.070Z,99916.93
2018-07-19T22:50:47.634Z,99920.09
2018-07-19T22:53:15.240Z,99924.50
2018-07-19T22:55:42.871Z,99926.35
2018-07-19T22:58:10.518Z,99927.53
2018-07-19T23:00:38.153Z,99930.75
2018-07-19T23:03:05.827Z,99931.27
2018-07-19T23:05:33.473Z,99933.61
2018-07-19T23:08:01.146Z,99931.95
2018-07-19T23:10:28.779Z,99940.25
2018-07-19T23:12:56.377Z,99942.73
2018-07-19T23:15:24.028Z,99947.87
2018-07-19T23:17:51.727Z,99944.58
2018-07-19T23:20:19.387Z,99943.91
2018-07-19T23:22:54.300Z,99944.90
2018-07-19T23:25:22.002Z,99942.75
2018-07-19T23:27:49.844Z,99953.22
2018-07-19T23:30:17.998Z,99951.54
2018-07-19T23:32:45.740Z,99943.25
2018-07-19T23:35:13.398Z,99947.23
2018-07-19T23:37:42.266Z,99949.56
2018-07-19T23:40:14.492Z,99953.20
2018-07-19T23:42:45.471Z,99948.22
2018-07-19T23:45:16.490Z,99948.56
2018-07-19T23:47:44.850Z,99948.89
2018-07-19T23:50:12.500Z,99946.73
2018-07-19T23:52:40.118Z,99948.22
2018-07-19T23:55:07.784Z,99937.42
2018-07-19T23:57:35.469Z,99946.20
